Hillside, New Jersey
Current Conditions -  °F | °C
As of 9:51 PM on Thursday 18 Dec 2014 (Local Time) from KEWR Reporting Station
Scattered Clouds Scattered Clouds  
Wind Chill: 30°   Ceiling: Unl
Heat Index: 37°   Visibility: 10mi
Dew Point: 27°   Wind: 9mph
Humidity: 67%   Direction: 280°W
Pressure: 29.98"   Gusts: NA
Location:  40.7°N, 74.23°W
Report Text: KEWR 190251Z 28008KT 10SM FEW032 SCT250 03/M03 A2998 RMK AO2 SLP153 T00281028 51003
Loading
Personal Weather Stations






























Interactive Weather Map New forecast layout! Learn more

10-Day Weather Forecast

Advertisements
Track Severe Weather on mobile